Time;durP1;ratioP1;P1;durP2;ratioP2;P2;SDS_P1;SDS_P2;PMS_P1;PMS_P2;Temp;Humidity;BMP_temperature;BMP_pressure;BME280_temperature;BME280_humidity;BME280_pressure;Samples;Min_cycle;Max_cycle;Signal;HPM_P1;HPM_P2
2023/07/17 00:00:15;;;;;;;4.13;2.60;;;;;;;16.39;100.00;101404.19;5010291;28;20381;-60
2023/07/17 00:02:40;;;;;;;4.80;2.95;;;;;;;16.36;100.00;101401.53;5009698;28;20026;-61
2023/07/17 00:05:06;;;;;;;5.75;2.88;;;;;;;16.29;100.00;101404.06;5009771;28;20508;-61
2023/07/17 00:07:31;;;;;;;3.75;2.42;;;;;;;16.26;100.00;101403.13;5009976;28;20491;-61
2023/07/17 00:09:57;;;;;;;3.88;2.50;;;;;;;16.24;100.00;101400.50;5010629;28;20672;-61
2023/07/17 00:12:22;;;;;;;4.15;3.15;;;;;;;16.24;100.00;101399.59;4996830;28;20121;-60
2023/07/17 00:14:48;;;;;;;3.63;3.10;;;;;;;16.19;100.00;101397.78;5009716;28;20029;-61
2023/07/17 00:17:14;;;;;;;3.83;3.05;;;;;;;16.15;100.00;101395.09;5009600;28;20482;-61
2023/07/17 00:19:40;;;;;;;5.57;3.17;;;;;;;16.17;100.00;101401.25;5009547;28;20022;-61
2023/07/17 00:22:06;;;;;;;5.03;2.80;;;;;;;16.12;100.00;101400.28;5009732;28;20022;-61
2023/07/17 00:24:31;;;;;;;5.00;2.58;;;;;;;16.15;100.00;101402.94;5009768;28;20101;-60
2023/07/17 00:26:57;;;;;;;6.45;3.00;;;;;;;16.13;100.00;101397.69;5009615;28;20109;-61
2023/07/17 00:29:28;;;;;;;4.80;2.97;;;;;;;16.14;100.00;101399.44;5009950;28;20025;-61
2023/07/17 00:31:54;;;;;;;5.47;3.15;;;;;;;16.16;100.00;101396.84;5009017;28;20029;-61
2023/07/17 00:34:19;;;;;;;5.35;2.92;;;;;;;16.19;100.00;101403.00;5009870;28;20076;-61
2023/07/17 00:36:45;;;;;;;6.40;3.50;;;;;;;16.20;100.00;101399.56;5009083;28;20116;-61
2023/07/17 00:39:11;;;;;;;4.38;2.95;;;;;;;16.23;100.00;101408.28;5010060;28;20112;-61
2023/07/17 00:41:36;;;;;;;4.93;2.67;;;;;;;16.18;100.00;101416.94;5008901;28;20133;-60
2023/07/17 00:44:03;;;;;;;4.10;3.08;;;;;;;16.15;100.00;101408.16;5008538;28;20022;-60
2023/07/17 00:46:29;;;;;;;4.90;3.13;;;;;;;16.07;100.00;101411.53;5008752;28;20478;-62
2023/07/17 00:48:54;;;;;;;4.07;3.10;;;;;;;16.10;100.00;101425.50;5009719;28;20022;-61
2023/07/17 00:51:20;;;;;;;5.20;2.88;;;;;;;16.06;100.00;101422.81;5009220;28;20091;-61
2023/07/17 00:53:45;;;;;;;5.90;3.22;;;;;;;16.01;100.00;101421.84;5002442;28;20038;-61
2023/07/17 00:56:11;;;;;;;6.38;3.22;;;;;;;15.93;100.00;101431.25;4989695;28;20455;-61
2023/07/17 00:58:36;;;;;;;5.95;3.25;;;;;;;15.91;100.00;101435.56;4996420;28;20037;-60
2023/07/17 01:01:03;;;;;;;8.57;3.83;;;;;;;15.83;100.00;101425.84;5008960;28;20025;-60
2023/07/17 01:03:29;;;;;;;5.88;3.22;;;;;;;15.83;100.00;101432.81;5009007;28;20018;-60
2023/07/17 01:05:56;;;;;;;7.20;3.55;;;;;;;15.77;100.00;101425.75;5008276;28;20026;-60
2023/07/17 01:08:22;;;;;;;5.40;3.40;;;;;;;15.78;100.00;101431.81;4998156;28;20132;-60
2023/07/17 01:10:47;;;;;;;8.40;3.78;;;;;;;15.71;100.00;101426.50;4989730;28;20187;-61
2023/07/17 01:13:12;;;;;;;6.22;3.22;;;;;;;15.72;100.00;101424.78;4989300;28;20026;-61
2023/07/17 01:15:38;;;;;;;5.30;3.20;;;;;;;15.73;100.00;101423.91;4989348;28;20124;-60
2023/07/17 01:18:03;;;;;;;8.07;3.55;;;;;;;15.71;100.00;101425.59;4989956;28;20121;-61
2023/07/17 01:20:28;;;;;;;5.47;3.67;;;;;;;15.72;100.00;101427.38;4988973;28;20045;-61
2023/07/17 01:23:03;;;;;;;7.90;3.40;;;;;;;15.73;100.00;101434.38;4989816;28;20023;-60
2023/07/17 01:25:28;;;;;;;5.63;3.30;;;;;;;15.69;100.00;101437.75;5008384;28;20366;-60
2023/07/17 01:27:54;;;;;;;5.88;2.97;;;;;;;15.67;100.00;101450.78;5008800;28;20025;-60
2023/07/17 01:30:19;;;;;;;6.20;2.90;;;;;;;15.55;100.00;101451.41;5002143;28;20018;-60
2023/07/17 01:32:44;;;;;;;6.22;3.28;;;;;;;15.53;100.00;101453.13;4988990;28;20057;-61
2023/07/17 01:35:10;;;;;;;5.35;3.53;;;;;;;15.51;100.00;101451.34;4995542;28;20018;-60
2023/07/17 01:37:35;;;;;;;6.50;3.00;;;;;;;15.48;100.00;101444.31;5008583;28;20545;-61
2023/07/17 01:40:00;;;;;;;5.22;2.90;;;;;;;15.46;100.00;101451.22;5007611;28;20026;-60
2023/07/17 01:42:26;;;;;;;6.20;3.40;;;;;;;15.41;100.00;101448.53;4990001;28;20039;-60
2023/07/17 01:44:52;;;;;;;7.38;3.55;;;;;;;15.36;100.00;101444.94;5002468;28;20022;-62
2023/07/17 01:47:17;;;;;;;4.70;3.03;;;;;;;15.33;100.00;101442.22;4988826;28;20022;-61
2023/07/17 01:49:42;;;;;;;5.03;2.78;;;;;;;15.33;100.00;101434.41;4996932;28;20538;-60
2023/07/17 01:52:10;;;;;;;5.22;3.10;;;;;;;15.38;100.00;101442.34;4999718;28;20104;-60
2023/07/17 01:54:35;;;;;;;8.35;3.63;;;;;;;15.32;100.00;101443.97;5007840;28;20025;-61
2023/07/17 01:57:00;;;;;;;5.07;2.60;;;;;;;15.32;100.00;101438.75;5007904;28;20038;-61
2023/07/17 01:59:26;;;;;;;7.45;2.95;;;;;;;15.36;100.00;101442.31;4994328;28;20034;-61
2023/07/17 02:01:51;;;;;;;4.50;2.67;;;;;;;15.36;100.00;101444.94;5008437;28;20076;-60
2023/07/17 02:04:16;;;;;;;10.75;3.45;;;;;;;15.31;100.00;101438.72;5007727;28;20030;-61
2023/07/17 02:06:41;;;;;;;6.53;3.72;;;;;;;15.27;100.00;101435.16;5006898;28;20095;-61
2023/07/17 02:09:07;;;;;;;6.13;3.53;;;;;;;15.27;100.00;101437.78;4993516;28;20506;-61
2023/07/17 02:11:32;;;;;;;6.65;3.10;;;;;;;15.22;100.00;101436.78;4997533;28;20030;-62
2023/07/17 02:13:57;;;;;;;5.78;2.80;;;;;;;15.19;100.00;101434.09;4989576;28;20029;-60
2023/07/17 02:16:23;;;;;;;4.93;3.13;;;;;;;15.16;100.00;101439.25;4988658;28;20022;-61
2023/07/17 02:18:48;;;;;;;7.38;2.90;;;;;;;15.10;100.00;101438.28;5007975;28;20486;-60
2023/07/17 02:21:13;;;;;;;6.45;3.47;;;;;;;15.10;100.00;101437.38;4995084;28;20076;-61
2023/07/17 02:23:39;;;;;;;5.85;2.80;;;;;;;15.06;100.00;101446.88;4988743;28;20092;-61
2023/07/17 02:26:04;;;;;;;4.53;2.55;;;;;;;15.04;100.00;101440.72;4988143;28;20510;-61
2023/07/17 02:28:29;;;;;;;8.75;3.83;;;;;;;15.01;100.00;101440.66;5007748;28;20022;-60
2023/07/17 02:30:54;;;;;;;7.85;3.60;;;;;;;14.99;100.00;101450.19;5007919;28;20026;-61
2023/07/17 02:33:20;;;;;;;5.10;3.40;;;;;;;15.00;100.00;101446.75;5007347;28;20378;-61
2023/07/17 02:35:45;;;;;;;4.97;2.50;;;;;;;14.97;100.00;101451.88;5007478;28;20029;-61
2023/07/17 02:38:11;;;;;;;6.78;3.15;;;;;;;14.97;100.00;101451.88;5006684;28;20393;-61
2023/07/17 02:40:36;;;;;;;5.55;3.05;;;;;;;14.98;100.00;101453.66;5007119;28;20517;-61
2023/07/17 02:43:01;;;;;;;6.50;2.80;;;;;;;14.93;100.00;101456.13;5007541;28;20033;-60
2023/07/17 02:45:26;;;;;;;6.50;2.78;;;;;;;14.91;100.00;101449.13;5007261;28;20452;-62
2023/07/17 02:47:53;;;;;;;5.22;2.88;;;;;;;14.80;100.00;101454.94;5007385;28;20018;-61
2023/07/17 02:50:18;;;;;;;6.35;3.17;;;;;;;14.83;100.00;101459.38;4996048;28;20423;-61
2023/07/17 02:52:43;;;;;;;6.80;3.17;;;;;;;14.78;100.00;101454.03;4987610;28;20109;-60
2023/07/17 02:55:09;;;;;;;6.13;2.97;;;;;;;14.76;100.00;101461.81;4987467;28;20034;-60
2023/07/17 02:57:35;;;;;;;7.55;3.15;;;;;;;14.71;100.00;101459.94;4988161;28;20128;-60
2023/07/17 03:00:08;;;;;;;9.13;4.15;;;;;;;14.74;100.00;101462.59;4988442;28;20030;-61
2023/07/17 03:02:33;;;;;;;7.32;3.60;;;;;;;14.70;100.00;101471.19;4989134;28;20568;-61
2023/07/17 03:04:58;;;;;;;8.95;3.25;;;;;;;14.71;100.00;101470.38;4988391;28;20034;-61
2023/07/17 03:07:23;;;;;;;5.30;2.97;;;;;;;14.67;100.00;101474.63;4991985;28;20459;-61
2023/07/17 03:09:49;;;;;;;7.30;2.75;;;;;;;14.63;100.00;101473.66;4996849;28;20018;-60
2023/07/17 03:12:14;;;;;;;8.77;3.38;;;;;;;14.64;100.00;101483.25;5000853;28;20026;-61
2023/07/17 03:14:39;;;;;;;8.00;3.22;;;;;;;14.61;100.00;101485.78;4998190;28;20033;-60
2023/07/17 03:17:04;;;;;;;12.07;3.50;;;;;;;14.60;100.00;101484.03;4990932;28;20068;-61
2023/07/17 03:19:30;;;;;;;8.05;3.25;;;;;;;14.58;100.00;101485.72;4988324;28;20455;-60
2023/07/17 03:21:55;;;;;;;4.68;3.10;;;;;;;14.58;100.00;101490.91;4987524;28;20110;-61
2023/07/17 03:24:20;;;;;;;7.13;3.50;;;;;;;14.55;100.00;101476.91;4986988;28;20052;-61
2023/07/17 03:26:45;;;;;;;7.05;3.22;;;;;;;14.53;100.00;101487.31;4987652;28;20033;-61
2023/07/17 03:29:11;;;;;;;5.60;2.95;;;;;;;14.51;100.00;101475.97;4987875;28;20084;-60
2023/07/17 03:31:36;;;;;;;7.50;3.00;;;;;;;14.49;100.00;101480.25;4999903;28;20054;-60
2023/07/17 03:34:01;;;;;;;6.45;3.78;;;;;;;14.45;100.00;101486.22;4984576;28;20030;-61
2023/07/17 03:36:26;;;;;;;7.15;3.35;;;;;;;14.39;100.00;101485.22;4986499;28;20038;-60
2023/07/17 03:38:52;;;;;;;8.52;3.22;;;;;;;14.32;100.00;101483.28;4985909;28;20030;-61
2023/07/17 03:41:20;;;;;;;7.78;3.33;;;;;;;14.30;100.00;101485.00;5001747;28;20116;-61
2023/07/17 03:43:46;;;;;;;7.03;4.05;;;;;;;14.30;100.00;101485.00;4995489;28;20445;-61
2023/07/17 03:46:11;;;;;;;11.52;3.63;;;;;;;14.34;100.00;101489.44;5002038;28;20032;-60
2023/07/17 03:48:36;;;;;;;7.53;3.38;;;;;;;14.34;100.00;101484.22;5006573;28;20034;-61
2023/07/17 03:51:01;;;;;;;7.25;2.88;;;;;;;14.34;100.00;101485.94;5006805;28;20017;-60
2023/07/17 03:53:27;;;;;;;6.10;3.10;;;;;;;14.31;100.00;101486.75;4996076;28;20035;-61
2023/07/17 03:55:52;;;;;;;7.00;3.35;;;;;;;14.29;100.00;101491.03;5003022;28;20425;-61
2023/07/17 03:58:17;;;;;;;6.18;3.00;;;;;;;14.22;100.00;101487.38;5006700;28;20084;-61
2023/07/17 04:00:42;;;;;;;5.70;3.28;;;;;;;14.21;100.00;101485.59;5005995;28;20037;-60
2023/07/17 04:03:08;;;;;;;7.53;3.42;;;;;;;14.23;100.00;101496.09;5006268;28;20382;-60
2023/07/17 04:05:33;;;;;;;9.70;3.85;;;;;;;14.25;100.00;101499.59;5006672;28;20017;-61
2023/07/17 04:07:58;;;;;;;6.22;3.88;;;;;;;14.19;100.00;101502.94;5010033;28;20030;-61
2023/07/17 04:10:24;;;;;;;6.70;3.65;;;;;;;14.20;100.00;101501.19;5010461;28;20517;-59
2023/07/17 04:12:49;;;;;;;6.97;3.92;;;;;;;14.12;100.00;101501.88;5010059;28;20034;-60
2023/07/17 04:15:14;;;;;;;5.63;3.13;;;;;;;14.10;100.00;101498.38;4995493;28;20022;-59
2023/07/17 04:17:40;;;;;;;10.73;4.07;;;;;;;14.08;100.00;101505.25;4999077;28;20193;-60
2023/07/17 04:20:09;;;;;;;11.15;3.70;;;;;;;14.06;100.00;101501.72;5008767;28;20109;-61
2023/07/17 04:22:34;;;;;;;6.07;3.40;;;;;;;14.01;100.00;101509.38;5010329;28;20018;-61
2023/07/17 04:25:01;;;;;;;7.70;3.80;;;;;;;14.05;100.00;101512.97;5009174;28;20470;-61
2023/07/17 04:27:27;;;;;;;9.40;3.58;;;;;;;14.07;100.00;101515.63;5009407;28;20085;-61
2023/07/17 04:29:52;;;;;;;7.72;3.50;;;;;;;14.05;100.00;101518.16;5009318;28;20042;-60
2023/07/17 04:32:17;;;;;;;7.43;3.47;;;;;;;13.99;100.00;101516.28;5009719;28;20029;-62
2023/07/17 04:34:42;;;;;;;8.10;3.55;;;;;;;14.00;100.00;101511.94;5008679;28;20022;-60
2023/07/17 04:37:08;;;;;;;8.15;3.58;;;;;;;14.03;100.00;101523.34;5009687;28;20367;-61
2023/07/17 04:39:33;;;;;;;7.57;4.38;;;;;;;14.04;100.00;101524.22;5008038;28;20819;-60
2023/07/17 04:41:58;;;;;;;8.52;4.30;;;;;;;14.08;100.00;101520.88;5009017;28;20069;-60
2023/07/17 04:44:24;;;;;;;10.25;4.65;;;;;;;14.13;100.00;101532.31;5007633;28;20034;-60
2023/07/17 04:46:49;;;;;;;9.85;4.30;;;;;;;14.11;100.00;101536.59;5009046;28;20034;-60
2023/07/17 04:49:14;;;;;;;7.00;4.40;;;;;;;14.14;100.00;101538.38;5004470;28;20070;-60
2023/07/17 04:51:40;;;;;;;8.70;3.90;;;;;;;14.17;100.00;101541.97;4990330;28;20030;-61
2023/07/17 04:54:05;;;;;;;7.32;4.03;;;;;;;14.17;100.00;101539.38;4990052;28;20053;-61
2023/07/17 04:56:31;;;;;;;6.15;4.00;;;;;;;14.21;100.00;101547.28;4990876;28;20072;-60
2023/07/17 04:58:57;;;;;;;8.10;4.25;;;;;;;14.22;100.00;101546.44;4990640;28;20022;-60
2023/07/17 05:01:22;;;;;;;10.18;4.38;;;;;;;14.27;100.00;101550.06;4989913;28;20023;-61
2023/07/17 05:03:47;;;;;;;8.02;3.90;;;;;;;14.28;100.00;101546.63;4990052;28;20025;-61
2023/07/17 05:06:13;;;;;;;7.55;4.32;;;;;;;14.31;100.00;101549.31;4989809;28;20501;-61
2023/07/17 05:08:38;;;;;;;7.22;4.80;;;;;;;14.27;100.00;101545.72;5002934;28;20801;-61
2023/07/17 05:11:04;;;;;;;10.65;4.05;;;;;;;14.30;100.00;101547.56;5008792;28;20068;-60
2023/07/17 05:13:30;;;;;;;6.82;4.32;;;;;;;14.38;100.00;101556.47;5006749;28;20041;-61
2023/07/17 05:15:55;;;;;;;9.52;4.97;;;;;;;14.40;100.00;101554.78;5008476;28;20507;-60
2023/07/17 05:18:21;;;;;;;9.32;4.57;;;;;;;14.40;100.00;101560.00;5007302;28;20036;-61
2023/07/17 05:20:48;;;;;;;15.50;5.82;;;;;;;14.45;100.00;101551.41;5008526;28;20045;-61
2023/07/17 05:23:13;;;;;;;9.48;4.63;;;;;;;14.51;100.00;101556.78;5007063;28;20343;-61
2023/07/17 05:25:39;;;;;;;12.95;5.05;;;;;;;14.55;100.00;101557.75;5008158;28;20379;-60
2023/07/17 05:28:05;;;;;;;10.98;3.95;;;;;;;14.66;100.00;101558.91;5006705;28;20026;-61
2023/07/17 05:30:34;;;;;;;9.50;4.60;;;;;;;14.67;100.00;101559.81;5007650;28;20038;-61
2023/07/17 05:32:59;;;;;;;12.93;4.85;;;;;;;14.72;100.00;101560.81;5006656;28;21136;-62
2023/07/17 05:35:25;;;;;;;9.65;4.50;;;;;;;14.72;100.00;101561.69;5007495;28;20501;-60
2023/07/17 05:37:50;;;;;;;6.05;4.38;;;;;;;14.81;100.00;101571.53;5006934;28;20406;-61
2023/07/17 05:40:16;;;;;;;6.53;4.15;;;;;;;14.88;100.00;101570.84;5007344;28;20108;-60
2023/07/17 05:42:42;;;;;;;9.93;4.40;;;;;;;14.97;100.00;101578.03;5006709;28;20593;-61
2023/07/17 05:45:08;;;;;;;7.57;4.43;;;;;;;15.03;100.00;101576.41;5007098;28;20029;-61
2023/07/17 05:47:33;;;;;;;11.02;5.03;;;;;;;15.06;100.00;101585.19;5006153;28;20538;-61
2023/07/17 05:49:59;;;;;;;6.10;4.60;;;;;;;15.18;100.00;101581.13;4999161;28;20054;-60
2023/07/17 05:52:24;;;;;;;7.82;4.43;;;;;;;15.25;100.00;101589.13;4988821;28;20296;-61
2023/07/17 05:54:50;;;;;;;8.15;4.40;;;;;;;15.32;100.00;101584.97;4989425;28;20034;-60
2023/07/17 05:57:15;;;;;;;9.98;4.47;;;;;;;15.39;100.00;101579.88;5001736;28;20498;-61
2023/07/17 05:59:40;;;;;;;11.65;4.68;;;;;;;15.40;100.00;101592.97;4995286;28;20041;-60
2023/07/17 06:02:06;;;;;;;10.23;4.35;;;;;;;15.51;100.00;101592.38;4994615;28;20070;-59
2023/07/17 06:04:31;;;;;;;11.25;4.50;;;;;;;15.59;100.00;101591.69;5004513;28;20069;-60
2023/07/17 06:06:56;;;;;;;10.50;4.45;;;;;;;15.64;100.00;101596.13;5002646;28;20037;-60
2023/07/17 06:09:22;;;;;;;8.00;4.60;;;;;;;15.69;100.00;101590.16;5005080;28;20018;-60
2023/07/17 06:11:47;;;;;;;7.35;4.55;;;;;;;15.76;100.00;101596.41;4998001;28;20172;-60
2023/07/17 06:14:12;;;;;;;10.95;5.35;;;;;;;15.78;100.00;101592.09;4990556;28;20077;-61
2023/07/17 06:16:38;;;;;;;9.23;4.57;;;;;;;15.87;100.00;101598.38;4996915;28;20635;-61
2023/07/17 06:19:03;;;;;;;7.68;4.18;;;;;;;16.01;100.00;101610.03;4987342;28;20482;-61
2023/07/17 06:21:28;;;;;;;8.40;4.95;;;;;;;16.11;100.00;101608.53;4993470;28;20038;-60
2023/07/17 06:23:53;;;;;;;8.88;4.95;;;;;;;16.23;100.00;101607.00;4998058;28;20435;-61
2023/07/17 06:26:19;;;;;;;9.90;4.75;;;;;;;16.32;100.00;101613.31;4986557;28;20034;-61
2023/07/17 06:28:46;;;;;;;9.77;4.93;;;;;;;16.47;100.00;101619.72;4992382;28;20038;-60
2023/07/17 06:31:11;;;;;;;6.78;4.85;;;;;;;16.58;100.00;101619.91;4989801;28;20390;-61
2023/07/17 06:33:37;;;;;;;8.70;4.47;;;;;;;16.63;100.00;101625.22;4996438;28;20037;-59
2023/07/17 06:36:02;;;;;;;11.52;5.10;;;;;;;16.70;100.00;101619.25;4991731;28;20378;-60
2023/07/17 06:38:28;;;;;;;10.60;5.38;;;;;;;16.65;100.00;101621.81;4993840;28;20030;-60
2023/07/17 06:40:53;;;;;;;7.43;4.38;;;;;;;16.78;100.00;101633.34;4998147;28;20046;-61
2023/07/17 06:43:18;;;;;;;6.65;4.60;;;;;;;16.91;100.00;101637.09;5000667;28;20020;-61
2023/07/17 06:45:44;;;;;;;6.88;4.13;;;;;;;17.00;100.00;101633.75;5001041;28;20026;-61
2023/07/17 06:48:09;;;;;;;9.43;5.80;;;;;;;16.98;100.00;101637.22;5007258;28;20080;-60
2023/07/17 06:50:34;;;;;;;7.88;5.00;;;;;;;17.03;100.00;101636.47;5007493;28;20061;-61
2023/07/17 06:52:59;;;;;;;7.35;4.53;;;;;;;17.02;100.00;101637.28;5007525;28;20025;-61
2023/07/17 06:55:25;;;;;;;8.15;4.90;;;;;;;17.04;100.00;101643.44;5006891;28;20410;-60
2023/07/17 06:57:50;;;;;;;8.00;4.53;;;;;;;17.15;100.00;101648.91;5001109;28;20030;-59
2023/07/17 07:00:15;;;;;;;8.57;4.25;;;;;;;17.12;100.00;101645.34;4989195;28;20509;-60
2023/07/17 07:02:41;;;;;;;8.32;4.68;;;;;;;17.37;100.00;101648.38;4989697;28;20026;-60
2023/07/17 07:05:06;;;;;;;10.35;4.78;;;;;;;17.37;100.00;101640.53;4989155;28;20127;-60
2023/07/17 07:07:32;;;;;;;8.90;5.38;;;;;;;17.54;100.00;101646.03;4988683;28;20411;-61
2023/07/17 07:09:57;;;;;;;8.10;4.47;;;;;;;17.64;100.00;101649.69;4998859;28;20025;-60
2023/07/17 07:12:22;;;;;;;9.50;4.45;;;;;;;17.81;100.00;101654.31;4989110;28;20529;-61
2023/07/17 07:14:48;;;;;;;9.02;4.40;;;;;;;17.91;100.00;101650.94;4988589;28;20181;-60
2023/07/17 07:17:13;;;;;;;9.50;4.45;;;;;;;18.09;100.00;101647.72;4987619;28;20387;-60
2023/07/17 07:19:38;;;;;;;8.05;4.40;;;;;;;18.11;100.00;101663.47;4988057;28;20038;-61
2023/07/17 07:22:04;;;;;;;9.52;4.65;;;;;;;18.11;100.00;101663.47;4987977;28;20062;-61
2023/07/17 07:24:29;;;;;;;6.85;4.07;;;;;;;18.15;100.00;101660.03;4987724;28;20034;-61
2023/07/17 07:26:54;;;;;;;10.23;4.10;;;;;;;18.22;100.00;101667.13;4987594;28;20022;-61
2023/07/17 07:29:19;;;;;;;9.85;4.40;;;;;;;18.13;98.45;101667.00;4987383;28;20026;-60
2023/07/17 07:31:45;;;;;;;7.00;4.05;;;;;;;18.09;98.31;101671.31;4987750;28;20033;-60
2023/07/17 07:34:10;;;;;;;12.07;4.40;;;;;;;17.96;97.49;101674.59;4987817;28;20026;-59
2023/07/17 07:36:35;;;;;;;12.60;5.47;;;;;;;17.81;98.32;101670.91;4987420;28;20022;-60
2023/07/17 07:39:05;;;;;;;10.18;4.82;;;;;;;17.85;100.00;101682.31;5001040;28;20101;-60
2023/07/17 07:41:30;;;;;;;6.78;3.80;;;;;;;17.87;100.00;101675.34;5006560;28;20037;-61
2023/07/17 07:43:56;;;;;;;7.57;4.15;;;;;;;18.02;99.61;101684.31;4995343;28;20471;-60
2023/07/17 07:46:21;;;;;;;7.95;4.28;;;;;;;18.06;99.67;101681.72;5007396;28;20032;-61
2023/07/17 07:48:46;;;;;;;9.82;3.92;;;;;;;18.11;97.96;101679.19;4999179;28;20029;-60
2023/07/17 07:51:11;;;;;;;7.38;4.30;;;;;;;18.16;96.70;101687.16;5006977;28;20036;-60
2023/07/17 07:53:37;;;;;;;8.75;3.85;;;;;;;18.19;95.34;101690.69;5010065;28;20088;-60
2023/07/17 07:56:02;;;;;;;10.75;4.18;;;;;;;18.27;95.18;101696.06;4995878;28;20390;-62
2023/07/17 07:58:27;;;;;;;7.00;3.58;;;;;;;18.16;92.20;101687.16;5003338;28;20038;-60
2023/07/17 08:00:53;;;;;;;7.70;3.78;;;;;;;18.13;93.65;101699.31;5006835;28;20026;-61
2023/07/17 08:03:18;;;;;;;7.88;4.22;;;;;;;18.07;92.42;101695.72;5001874;28;20026;-60
2023/07/17 08:05:44;;;;;;;8.07;3.65;;;;;;;18.04;92.54;101703.56;4994001;28;20041;-61
2023/07/17 08:08:09;;;;;;;8.20;3.63;;;;;;;18.32;93.87;101693.47;5001458;28;20431;-61
2023/07/17 08:10:37;;;;;;;6.00;3.70;;;;;;;18.65;94.66;101691.28;5009713;28;20030;-61
2023/07/17 08:13:02;;;;;;;5.85;3.65;;;;;;;18.99;93.56;101696.91;5009620;28;20413;-60
2023/07/17 08:15:28;;;;;;;6.85;3.60;;;;;;;19.26;90.46;101702.44;5006047;28;20080;-60
2023/07/17 08:17:53;;;;;;;7.28;3.53;;;;;;;19.32;87.68;101710.34;5006295;28;20164;-61
2023/07/17 08:20:18;;;;;;;8.13;4.28;;;;;;;19.26;87.49;101710.31;5003617;28;20442;-62
2023/07/17 08:22:44;;;;;;;8.98;4.43;;;;;;;19.41;84.82;101705.19;5005355;28;20021;-61
2023/07/17 08:25:09;;;;;;;6.90;3.25;;;;;;;19.39;85.53;101701.66;5003170;28;20489;-61
2023/07/17 08:27:34;;;;;;;8.55;3.95;;;;;;;19.26;83.29;101698.06;4996562;28;20548;-61
2023/07/17 08:29:59;;;;;;;9.25;3.60;;;;;;;19.16;83.98;101710.22;5000824;28;20094;-60
2023/07/17 08:32:25;;;;;;;6.78;3.58;;;;;;;19.36;83.43;101709.53;5001748;28;20381;-60
2023/07/17 08:34:50;;;;;;;5.68;3.60;;;;;;;19.61;83.96;101704.47;5007683;28;20045;-61
2023/07/17 08:37:15;;;;;;;4.97;3.13;;;;;;;19.73;82.06;101705.47;5001922;28;20080;-61
2023/07/17 08:39:41;;;;;;;7.18;4.07;;;;;;;19.76;79.87;101716.88;5008892;28;20021;-60
2023/07/17 08:42:06;;;;;;;5.50;3.50;;;;;;;19.80;80.62;101710.78;5008086;28;20037;-60
2023/07/17 08:44:33;;;;;;;8.13;3.42;;;;;;;19.94;81.15;101714.34;5008345;28;20033;-61
2023/07/17 08:47:01;;;;;;;5.85;3.42;;;;;;;20.13;79.65;101716.25;5000850;28;20044;-60
2023/07/17 08:49:26;;;;;;;5.97;3.30;;;;;;;20.35;77.03;101711.13;5000199;28;20033;-61
2023/07/17 08:51:54;;;;;;;6.50;3.75;;;;;;;20.45;74.18;101700.63;5003963;28;20030;-60
2023/07/17 08:54:19;;;;;;;6.95;3.25;;;;;;;20.69;73.42;101710.38;5008640;28;20030;-61
2023/07/17 08:56:46;;;;;;;5.57;3.10;;;;;;;20.86;72.81;101709.56;5008859;28;20361;-60
2023/07/17 08:59:12;;;;;;;5.90;3.40;;;;;;;21.14;70.86;101716.69;5007949;28;20029;-62
2023/07/17 09:01:38;;;;;;;5.97;3.45;;;;;;;21.18;71.44;101711.41;5005042;28;20411;-61
2023/07/17 09:04:04;;;;;;;5.85;2.90;;;;;;;21.07;69.40;101716.66;5003103;28;20129;-60
2023/07/17 09:06:29;;;;;;;6.15;3.65;;;;;;;21.24;70.94;101718.44;4998516;28;20208;-60
2023/07/17 09:08:55;;;;;;;5.07;3.15;;;;;;;21.29;67.81;101706.16;4998769;28;20022;-60
2023/07/17 09:11:20;;;;;;;5.93;2.80;;;;;;;21.60;69.56;101708.75;4993857;28;20160;-61
2023/07/17 09:13:47;;;;;;;5.72;3.20;;;;;;;21.91;69.32;101707.03;5004266;28;20034;-61
2023/07/17 09:16:14;;;;;;;6.45;3.10;;;;;;;22.05;69.14;101707.00;4997450;28;20030;-61
2023/07/17 09:18:39;;;;;;;7.57;3.33;;;;;;;21.97;66.05;101717.56;5005739;28;20348;-60
2023/07/17 09:21:04;;;;;;;5.38;3.60;;;;;;;22.06;68.50;101714.91;4998381;28;20038;-61
2023/07/17 09:23:46;;;;;;;6.20;3.38;;;;;;;22.22;67.56;101722.78;4997044;28;20021;-61
2023/07/17 09:26:13;;;;;;;6.30;3.30;;;;;;;21.88;65.30;101721.09;4995747;28;20105;-61
2023/07/17 09:28:52;;;;;;;6.53;2.90;;;;;;;21.81;65.24;101722.88;5001491;28;20024;-60
2023/07/17 09:31:28;;;;;;;4.70;2.90;;;;;;;22.10;67.68;101721.06;4995645;28;20390;-61
2023/07/17 09:33:55;;;;;;;6.63;3.38;;;;;;;22.15;65.33;101715.75;4996533;28;20022;-61
2023/07/17 09:36:21;;;;;;;5.20;3.15;;;;;;;22.23;63.34;101721.91;4995456;28;20110;-60
2023/07/17 09:38:52;;;;;;;5.18;3.17;;;;;;;22.45;62.25;101713.03;5002994;28;20109;-61
2023/07/17 09:41:23;;;;;;;4.10;2.92;;;;;;;22.61;63.43;101716.47;4996028;28;20181;-61
2023/07/17 09:44:09;;;;;;;6.10;3.03;;;;;;;22.49;60.68;101712.09;4994199;28;20026;-61
2023/07/17 09:46:36;;;;;;;4.78;2.40;;;;;;;22.69;60.41;101719.97;4997995;28;20083;-60
2023/07/17 09:49:09;;;;;;;6.00;2.67;;;;;;;22.78;59.87;101725.22;4993716;28;20085;-61
2023/07/17 09:51:35;;;;;;;3.92;2.53;;;;;;;22.61;57.28;101727.03;4997552;28;20040;-61
2023/07/17 09:54:02;;;;;;;4.65;2.50;;;;;;;21.89;57.35;101732.53;5007500;28;20117;-61
2023/07/17 09:56:31;;;;;;;6.38;2.53;;;;;;;21.93;59.10;101726.34;5008547;28;20054;-60
2023/07/17 09:59:07;;;;;;;6.03;2.53;;;;;;;21.84;61.60;101732.50;5007835;28;20053;-60
2023/07/17 10:01:33;;;;;;;5.53;2.85;;;;;;;22.16;60.08;101725.44;4997515;28;20022;-60
2023/07/17 10:04:05;;;;;;;4.43;2.38;;;;;;;22.49;61.54;101728.84;4988055;28;20567;-60
2023/07/17 10:06:31;;;;;;;4.80;2.65;;;;;;;22.46;59.62;101727.97;4999134;28;20494;-61
2023/07/17 10:08:59;;;;;;;5.07;2.40;;;;;;;22.34;57.93;101736.81;5003790;28;20092;-61
2023/07/17 10:11:24;;;;;;;5.63;2.58;;;;;;;22.15;58.82;101721.03;4997898;28;20034;-60
2023/07/17 10:13:50;;;;;;;3.47;1.90;;;;;;;21.97;56.90;101730.75;5007396;28;20030;-61
2023/07/17 10:16:17;;;;;;;4.55;2.65;;;;;;;21.60;58.85;101726.38;4997923;28;20034;-61
2023/07/17 10:18:48;;;;;;;5.55;2.08;;;;;;;21.80;59.51;101717.59;5001021;28;20030;-60
2023/07/17 10:21:14;;;;;;;;;;;;;;;21.91;58.22;101725.50;4989145;28;20061;-61
2023/07/17 10:23:42;;;;;;;4.03;2.50;;;;;;;22.01;59.76;101727.22;4990693;28;19921;-62
2023/07/17 10:26:12;;;;;;;5.68;2.45;;;;;;;22.03;58.06;101728.13;5009888;28;20046;-61
2023/07/17 10:28:38;;;;;;;5.30;2.67;;;;;;;21.88;58.74;101736.03;5007470;28;20053;-61
2023/07/17 10:31:17;;;;;;;5.60;2.92;;;;;;;22.06;57.21;101728.09;5007146;28;20040;-61
2023/07/17 10:33:46;;;;;;;5.28;2.88;;;;;;;22.09;56.80;101724.56;4996091;28;20359;-61
2023/07/17 10:36:12;;;;;;;3.72;3.25;;;;;;;22.05;56.64;101723.72;5006667;28;20047;-60
2023/07/17 10:38:38;;;;;;;4.78;3.40;;;;;;;22.10;58.18;101726.34;5007348;28;20033;-59
2023/07/17 10:41:23;;;;;;;6.13;2.83;;;;;;;22.38;63.84;101720.09;5004577;28;20634;-59
2023/07/17 10:43:57;;;;;;;4.93;3.03;;;;;;;22.48;57.78;101723.56;5007225;28;20105;-60
2023/07/17 10:46:27;;;;;;;4.88;2.50;;;;;;;22.35;56.02;101720.97;5005039;28;20033;-60
2023/07/17 10:48:54;;;;;;;4.80;2.60;;;;;;;22.22;55.26;101733.31;5006441;28;20403;-59
2023/07/17 10:51:25;;;;;;;5.35;2.90;;;;;;;22.04;56.83;101736.88;4994129;28;20056;-59
2023/07/17 10:53:54;;;;;;;7.18;3.17;;;;;;;22.13;56.77;101730.72;5007328;28;20548;-60
2023/07/17 10:56:20;;;;;;;4.28;2.80;;;;;;;22.34;59.17;101726.25;5007617;28;20021;-61
2023/07/17 10:58:49;;;;;;;5.13;2.60;;;;;;;22.55;58.01;101718.25;5006811;28;20482;-60
2023/07/17 11:01:15;;;;;;;6.07;3.15;;;;;;;22.67;55.58;101717.34;5006283;28;20304;-60
2023/07/17 11:03:43;;;;;;;5.13;3.38;;;;;;;22.81;55.66;101712.88;4991675;28;20596;-59
2023/07/17 11:06:09;;;;;;;5.07;3.08;;;;;;;23.02;56.48;101712.75;4986859;28;20026;-60
2023/07/17 11:08:34;;;;;;;5.93;3.63;;;;;;;23.21;54.39;101720.53;4985745;28;20028;-61
2023/07/17 11:10:59;;;;;;;4.35;2.95;;;;;;;23.31;53.64;101720.47;5005519;28;20029;-60
2023/07/17 11:13:30;;;;;;;5.05;3.30;;;;;;;23.27;54.60;101725.81;5004544;28;20025;-60